Time;durP1;ratioP1;P1;durP2;ratioP2;P2;SDS_P1;SDS_P2;PMS_P1;PMS_P2;Temp;Humidity;BMP_temperature;BMP_pressure;BME280_temperature;BME280_humidity;BME280_pressure;Samples;Min_cycle;Max_cycle;Signal;HPM_P1;HPM_P2
2022/05/20 00:00:44;;;;;;;14.60;13.70;;;21.00;61.90;;;;;;4994653;28;20037;-78
2022/05/20 00:03:10;;;;;;;14.50;13.50;;;21.10;61.60;;;;;;5013640;28;20049;-78
2022/05/20 00:05:36;;;;;;;14.90;14.00;;;21.00;61.90;;;;;;5010086;28;20040;-78
2022/05/20 00:08:03;;;;;;;14.98;14.02;;;21.10;61.60;;;;;;4994358;28;20052;-78
2022/05/20 00:10:30;;;;;;;14.48;13.57;;;21.10;61.80;;;;;;4990722;28;20049;-78
2022/05/20 00:12:56;;;;;;;14.63;13.73;;;21.00;62.00;;;;;;5011207;28;20037;-78
2022/05/20 00:15:24;;;;;;;14.88;13.68;;;21.10;61.80;;;;;;5003244;28;20053;-78
2022/05/20 00:17:50;;;;;;;15.27;13.95;;;21.10;61.90;;;;;;5006943;28;20407;-78
2022/05/20 00:20:17;;;;;;;14.20;13.40;;;21.00;62.20;;;;;;5009992;28;20037;-78
2022/05/20 00:22:43;;;;;;;13.70;12.77;;;20.90;62.60;;;;;;5004586;28;20041;-78
2022/05/20 00:27:54;;;;;;;13.80;12.63;;;20.80;63.30;;;;;;5018799;28;20052;-78
2022/05/20 00:30:20;;;;;;;13.45;12.60;;;20.70;63.40;;;;;;5010899;28;20029;-78
2022/05/20 00:32:47;;;;;;;13.90;12.90;;;20.70;63.50;;;;;;5010500;28;20505;-79
2022/05/20 00:35:13;;;;;;;13.60;12.77;;;20.70;63.70;;;;;;5006890;28;20037;-78
2022/05/20 00:37:43;;;;;;;13.45;12.65;;;20.70;63.60;;;;;;5007913;28;20022;-79
2022/05/20 00:40:13;;;;;;;13.87;12.87;;;20.60;64.20;;;;;;4971273;28;20129;-78
2022/05/20 00:42:40;;;;;;;14.07;13.05;;;20.50;64.60;;;;;;5015635;28;20033;-78
2022/05/20 00:45:07;;;;;;;13.07;12.18;;;20.40;65.00;;;;;;5013435;28;20487;-78
2022/05/20 00:47:33;;;;;;;13.18;12.27;;;20.40;64.90;;;;;;5008534;28;20371;-78
2022/05/20 00:50:02;;;;;;;13.40;12.50;;;20.40;64.90;;;;;;5022479;28;20027;-78
2022/05/20 00:52:29;;;;;;;13.18;12.07;;;20.50;65.00;;;;;;5008520;28;20030;-78
2022/05/20 00:54:58;;;;;;;12.95;11.95;;;20.30;65.50;;;;;;5025089;28;20490;-78
2022/05/20 00:57:34;;;;;;;12.77;11.98;;;20.20;65.60;;;;;;5011315;28;20025;-78
2022/05/20 01:00:04;;;;;;;12.10;11.35;;;20.20;66.00;;;;;;5011216;28;20018;-78
2022/05/20 01:02:30;;;;;;;13.27;12.23;;;20.20;66.20;;;;;;5007854;28;20479;-78
2022/05/20 01:04:58;;;;;;;13.02;12.13;;;20.20;66.20;;;;;;5010802;28;20031;-78
2022/05/20 01:07:24;;;;;;;13.05;12.15;;;20.20;66.10;;;;;;5007149;28;20091;-78
2022/05/20 01:09:50;;;;;;;12.60;11.90;;;20.20;66.10;;;;;;4998587;28;20034;-78
2022/05/20 01:12:16;;;;;;;12.15;11.35;;;20.10;66.50;;;;;;5016301;28;20087;-78
2022/05/20 01:14:42;;;;;;;11.52;10.73;;;20.10;66.80;;;;;;5009124;28;20041;-78
2022/05/20 01:17:08;;;;;;;12.07;11.02;;;20.00;67.00;;;;;;5004506;28;20034;-77
2022/05/20 01:19:36;;;;;;;11.65;10.75;;;20.00;67.30;;;;;;5004311;28;20476;-77
2022/05/20 01:22:04;;;;;;;11.40;10.60;;;19.90;67.60;;;;;;5013715;28;20030;-79
2022/05/20 01:24:30;;;;;;;11.70;10.90;;;19.90;67.50;;;;;;4991550;28;20026;-80
2022/05/20 01:26:56;;;;;;;11.40;10.70;;;20.00;67.10;;;;;;5000559;28;20045;-78
2022/05/20 01:29:22;;;;;;;12.00;11.10;;;20.20;66.80;;;;;;4993044;28;20041;-77
2022/05/20 01:31:49;;;;;;;12.00;11.05;;;20.20;66.40;;;;;;5007926;28;20037;-78
2022/05/20 01:34:15;;;;;;;11.70;10.88;;;20.20;66.50;;;;;;5015300;28;20037;-77
2022/05/20 01:36:41;;;;;;;12.10;11.05;;;20.20;66.60;;;;;;5011295;28;20033;-77
2022/05/20 01:39:07;;;;;;;12.30;11.38;;;20.30;66.40;;;;;;5004772;28;20394;-77
2022/05/20 01:42:02;;;;;;;12.18;11.38;;;20.40;66.00;;;;;;5009408;28;20072;-77
2022/05/20 01:44:37;;;;;;;12.35;11.55;;;20.50;65.50;;;;;;5017350;28;20037;-77
2022/05/20 01:48:05;;;;;;;13.05;12.05;;;20.50;65.50;;;;;;5014524;28;20052;-77
2022/05/20 01:50:33;;;;;;;11.23;10.52;;;20.50;65.90;;;;;;5006969;28;20441;-77
2022/05/20 01:53:06;;;;;;;11.10;10.35;;;20.20;67.00;;;;;;5021036;28;20033;-77
2022/05/20 01:56:01;;;;;;;11.15;10.32;;;20.10;67.60;;;;;;5009852;28;20041;-78
2022/05/20 01:58:43;;;;;;;11.45;10.65;;;20.20;67.40;;;;;;4943567;28;20045;-78
2022/05/20 02:01:13;;;;;;;12.10;11.10;;;20.30;66.70;;;;;;4948150;28;20047;-77
2022/05/20 02:03:43;;;;;;;12.15;11.45;;;20.50;65.90;;;;;;4948760;29;20521;-77
2022/05/20 02:06:10;;;;;;;12.47;11.67;;;20.70;65.30;;;;;;4915688;29;20036;-77
2022/05/20 02:09:04;;;;;;;12.95;12.02;;;20.90;64.90;;;;;;4928096;28;20054;-77
2022/05/20 02:11:46;;;;;;;13.15;12.18;;;21.00;64.50;;;;;;4890193;29;20059;-77
2022/05/20 02:14:26;;;;;;;13.55;12.55;;;21.10;64.20;;;;;;4908325;29;20126;-78
2022/05/20 02:17:14;;;;;;;13.30;12.30;;;21.10;64.20;;;;;;4906998;29;20036;-77
2022/05/20 02:20:04;;;;;;;12.95;12.15;;;20.90;65.00;;;;;;4904940;29;20051;-77
2022/05/20 02:22:33;;;;;;;11.95;11.15;;;20.70;66.10;;;;;;4871318;29;20576;-77
2022/05/20 02:24:59;;;;;;;12.18;11.38;;;20.50;67.00;;;;;;4843864;29;20041;-77
2022/05/20 02:27:29;;;;;;;10.00;9.25;;;20.50;68.00;;;;;;4871358;29;20045;-76
2022/05/20 02:30:05;;;;;;;9.77;9.10;;;20.10;70.60;;;;;;4850474;29;20033;-77
2022/05/20 02:32:35;;;;;;;11.38;10.35;;;19.80;72.60;;;;;;4853793;29;20041;-76
2022/05/20 02:35:02;;;;;;;11.30;10.40;;;19.60;74.00;;;;;;4868982;29;20112;-76
2022/05/20 02:37:32;;;;;;;11.77;10.88;;;19.60;74.70;;;;;;4937116;28;20290;-75
2022/05/20 02:39:59;;;;;;;13.18;12.15;;;19.40;76.20;;;;;;4928362;29;20038;-75
2022/05/20 02:42:27;;;;;;;13.98;12.98;;;19.20;77.20;;;;;;4916878;29;20035;-76
2022/05/20 02:44:53;;;;;;;14.70;13.20;;;19.10;78.20;;;;;;4919512;29;20166;-77
2022/05/20 02:47:20;;;;;;;12.98;12.15;;;19.20;77.60;;;;;;4921556;28;20054;-77
2022/05/20 02:49:46;;;;;;;14.13;13.02;;;19.20;78.30;;;;;;5011271;28;20487;-76
2022/05/20 02:52:12;;;;;;;13.90;12.88;;;19.20;77.50;;;;;;5013583;28;20026;-77
2022/05/20 02:54:38;;;;;;;15.00;13.82;;;19.40;78.00;;;;;;4994342;28;20380;-77
2022/05/20 02:57:05;;;;;;;15.68;14.38;;;19.40;78.40;;;;;;5012005;28;20391;-76
2022/05/20 03:05:00;;;;;;;16.67;15.55;;;19.30;80.30;;;;;;5015664;28;20037;-76
2022/05/20 03:07:26;;;;;;;16.65;15.57;;;19.40;78.90;;;;;;4994304;28;20046;-77
2022/05/20 03:09:52;;;;;;;17.10;15.98;;;19.50;78.50;;;;;;5009098;28;20048;-77
2022/05/20 03:12:19;;;;;;;18.20;17.00;;;19.70;77.80;;;;;;4979560;28;20042;-76
2022/05/20 03:14:45;;;;;;;16.35;15.32;;;19.80;77.40;;;;;;4993688;28;20037;-77
2022/05/20 03:17:11;;;;;;;15.23;14.02;;;20.00;76.30;;;;;;5010240;28;20483;-76
2022/05/20 03:19:37;;;;;;;15.13;13.95;;;20.20;76.20;;;;;;5010696;28;20039;-76
2022/05/20 03:22:04;;;;;;;16.67;15.40;;;20.30;76.00;;;;;;5010567;28;20018;-76
2022/05/20 03:24:30;;;;;;;15.80;14.63;;;20.30;77.00;;;;;;5007709;28;20372;-77
2022/05/20 03:26:56;;;;;;;17.25;16.05;;;20.00;78.20;;;;;;5011251;28;20041;-76
2022/05/20 03:29:23;;;;;;;19.15;17.85;;;19.90;78.20;;;;;;5006527;28;20026;-76
2022/05/20 03:31:49;;;;;;;16.10;14.90;;;19.90;78.10;;;;;;5010740;28;20034;-76
2022/05/20 03:34:17;;;;;;;17.52;16.33;;;19.80;80.00;;;;;;5008107;28;20029;-76
2022/05/20 03:36:44;;;;;;;16.85;15.60;;;19.80;79.20;;;;;;5010960;28;20037;-76
2022/05/20 03:39:13;;;;;;;16.67;15.32;;;19.50;81.50;;;;;;5009593;28;20446;-75
2022/05/20 03:41:39;;;;;;;16.38;15.25;;;19.40;82.20;;;;;;5002552;28;20042;-81
2022/05/20 03:44:06;;;;;;;17.90;16.20;;;19.30;81.60;;;;;;5003965;28;20026;-76
2022/05/20 03:46:32;;;;;;;16.58;15.48;;;19.40;81.90;;;;;;5006701;28;22979;-74
2022/05/20 03:48:59;;;;;;;16.67;15.25;;;19.30;82.80;;;;;;5002068;28;20519;-73
2022/05/20 03:51:25;;;;;;;18.63;17.20;;;19.20;83.60;;;;;;5010490;28;20044;-73
2022/05/20 03:53:51;;;;;;;20.20;18.95;;;19.10;84.10;;;;;;5010070;28;20029;-73
2022/05/20 03:56:17;;;;;;;19.35;17.95;;;19.00;85.00;;;;;;5011216;28;20032;-73
2022/05/20 03:58:43;;;;;;;19.48;18.30;;;19.00;84.50;;;;;;4991956;28;20591;-74
2022/05/20 04:03:54;;;;;;;20.83;19.10;;;19.00;84.80;;;;;;5014840;28;20048;-77
2022/05/20 04:06:20;;;;;;;22.42;20.90;;;19.00;85.10;;;;;;5005900;28;20022;-77
2022/05/20 04:08:47;;;;;;;25.48;23.58;;;19.20;84.10;;;;;;5009822;28;20041;-77
2022/05/20 04:11:13;;;;;;;27.67;26.00;;;19.40;83.50;;;;;;5009666;28;20018;-76
2022/05/20 04:13:40;;;;;;;25.10;22.80;;;19.60;82.40;;;;;;5006317;28;20026;-75
2022/05/20 04:16:10;;;;;;;20.90;19.05;;;19.60;84.00;;;;;;5006626;28;20387;-77
2022/05/20 04:18:38;;;;;;;22.25;20.42;;;19.20;84.40;;;;;;5010441;28;20026;-74
2022/05/20 04:21:05;;;;;;;22.75;20.92;;;19.10;84.80;;;;;;5008661;28;20045;-74
2022/05/20 04:23:31;;;;;;;21.52;19.77;;;19.30;84.60;;;;;;5010221;28;20053;-75
2022/05/20 04:25:57;;;;;;;19.45;17.88;;;19.30;84.40;;;;;;5012621;28;20419;-75
2022/05/20 04:28:23;;;;;;;20.13;18.27;;;19.30;85.30;;;;;;5011608;28;20041;-75
2022/05/20 04:30:56;;;;;;;19.23;17.73;;;19.30;85.50;;;;;;4981140;28;20609;-76
2022/05/20 04:33:22;;;;;;;16.48;15.05;;;19.30;85.20;;;;;;5006077;28;20404;-74
2022/05/20 04:35:48;;;;;;;15.65;14.20;;;19.30;85.70;;;;;;5013038;28;20041;-75
2022/05/20 04:38:15;;;;;;;13.80;12.50;;;19.10;85.70;;;;;;5013853;28;20040;-75
2022/05/20 04:40:41;;;;;;;15.48;12.48;;;19.10;85.50;;;;;;5011954;28;20507;-76
2022/05/20 04:48:36;;;;;;;15.07;13.75;;;19.30;85.20;;;;;;5014990;28;20053;-77
2022/05/20 04:51:02;;;;;;;14.50;13.40;;;19.40;85.00;;;;;;5011019;28;20026;-78
2022/05/20 04:56:13;;;;;;;12.25;10.95;;;19.30;85.50;;;;;;5016359;28;20048;-79
2022/05/20 04:58:39;;;;;;;12.77;11.63;;;19.20;86.00;;;;;;5012225;28;20025;-78
2022/05/20 05:01:05;;;;;;;15.38;12.82;;;19.10;86.20;;;;;;5011357;28;20033;-78
2022/05/20 05:03:31;;;;;;;14.20;12.77;;;19.00;86.40;;;;;;5012551;28;20034;-78
2022/05/20 05:05:59;;;;;;;12.38;11.30;;;19.10;86.30;;;;;;5013263;28;20036;-78
2022/05/20 05:08:25;;;;;;;13.15;11.88;;;19.10;85.90;;;;;;5011678;28;20041;-78
2022/05/20 05:10:52;;;;;;;14.13;12.82;;;19.00;86.40;;;;;;5012189;28;20036;-78
2022/05/20 05:13:18;;;;;;;12.40;11.30;;;19.00;86.60;;;;;;4992590;28;20501;-78
2022/05/20 05:15:44;;;;;;;13.02;11.75;;;19.00;86.90;;;;;;5011499;28;20033;-78
2022/05/20 05:18:13;;;;;;;13.50;12.30;;;19.00;86.70;;;;;;5008188;28;20034;-78
2022/05/20 05:20:45;;;;;;;12.45;11.25;;;19.20;86.50;;;;;;5012107;28;20026;-78
2022/05/20 05:23:11;;;;;;;12.95;11.85;;;19.10;86.20;;;;;;4992359;28;20484;-78
2022/05/20 05:25:37;;;;;;;14.88;13.45;;;19.10;86.80;;;;;;5013182;28;20048;-78
2022/05/20 05:28:04;;;;;;;13.57;12.45;;;19.10;86.80;;;;;;5006692;28;20037;-78
2022/05/20 05:30:30;;;;;;;13.73;12.45;;;19.20;86.80;;;;;;5011337;28;20045;-78
2022/05/20 05:32:56;;;;;;;14.15;12.75;;;19.20;86.30;;;;;;5012897;28;20475;-78
2022/05/20 05:35:25;;;;;;;12.95;12.00;;;19.30;86.10;;;;;;5011845;28;20040;-78
2022/05/20 05:37:51;;;;;;;14.40;13.10;;;19.30;85.80;;;;;;5007777;28;20028;-78
2022/05/20 05:40:22;;;;;;;14.52;13.23;;;19.30;85.80;;;;;;5010761;28;20399;-78
2022/05/20 05:42:48;;;;;;;14.40;13.10;;;19.40;85.80;;;;;;5011886;28;20042;-76
2022/05/20 05:45:17;;;;;;;14.63;13.27;;;19.40;85.70;;;;;;5010995;28;20483;-77
2022/05/20 05:47:45;;;;;;;14.35;13.20;;;19.50;85.80;;;;;;5011621;28;20045;-76
2022/05/20 05:50:11;;;;;;;14.35;13.15;;;19.60;85.20;;;;;;5007369;28;20025;-74
2022/05/20 05:52:37;;;;;;;15.07;13.68;;;19.70;84.80;;;;;;5006720;28;20034;-75
2022/05/20 05:55:04;;;;;;;15.80;14.48;;;19.70;84.40;;;;;;4994862;28;20048;-73
2022/05/20 05:57:30;;;;;;;16.63;15.05;;;19.90;83.40;;;;;;4997732;28;20049;-74
2022/05/20 05:59:56;;;;;;;18.48;16.70;;;20.10;83.10;;;;;;5003557;28;20463;-74
2022/05/20 06:02:22;;;;;;;17.88;16.58;;;20.20;82.80;;;;;;5008403;28;20038;-75
2022/05/20 06:04:50;;;;;;;18.58;17.08;;;20.30;82.00;;;;;;5007579;28;20387;-75
2022/05/20 06:07:16;;;;;;;18.98;17.42;;;20.40;81.70;;;;;;4996947;28;20400;-75
2022/05/20 06:09:42;;;;;;;19.65;17.95;;;20.40;81.30;;;;;;5010971;28;20030;-75
2022/05/20 06:12:09;;;;;;;20.45;19.05;;;20.50;81.20;;;;;;5001917;28;20022;-76
2022/05/20 06:14:35;;;;;;;11.50;10.60;;;20.60;80.80;;;;;;4990891;28;20042;-83
2022/05/20 06:17:01;;;;;;;12.90;11.68;;;20.60;79.60;;;;;;5007575;28;20046;-82
2022/05/20 06:19:29;;;;;;;11.57;10.52;;;20.70;78.90;;;;;;4993370;28;20057;-84
2022/05/20 06:21:55;;;;;;;12.65;11.70;;;20.90;78.00;;;;;;5011509;28;20026;-84
2022/05/20 06:24:21;;;;;;;12.18;11.07;;;21.00;78.20;;;;;;5008524;28;20037;-84
2022/05/20 06:26:47;;;;;;;12.57;11.57;;;21.00;78.50;;;;;;5010148;28;20431;-84
2022/05/20 06:29:14;;;;;;;12.57;11.68;;;21.10;78.00;;;;;;5010281;28;20053;-84
2022/05/20 06:31:42;;;;;;;14.23;12.88;;;21.10;77.90;;;;;;5012246;28;20026;-83
2022/05/20 06:34:08;;;;;;;14.63;13.20;;;21.20;78.30;;;;;;5009935;28;20046;-82
2022/05/20 06:42:03;;;;;;;13.55;12.55;;;21.00;80.10;;;;;;5009510;28;20044;-80
2022/05/20 06:44:29;;;;;;;14.25;13.15;;;20.90;80.50;;;;;;5010648;28;20044;-78
2022/05/20 06:46:55;;;;;;;14.23;12.60;;;20.80;81.00;;;;;;5000018;28;20360;-75
2022/05/20 06:49:21;;;;;;;13.98;12.70;;;20.70;81.80;;;;;;5010720;28;20045;-74
2022/05/20 06:51:49;;;;;;;14.23;13.05;;;20.80;82.20;;;;;;5013320;28;20049;-75
2022/05/20 06:54:15;;;;;;;15.30;13.75;;;20.90;82.20;;;;;;5012352;28;20042;-75
2022/05/20 06:56:44;;;;;;;15.73;13.95;;;21.10;81.90;;;;;;5012530;28;22183;-74
2022/05/20 06:59:10;;;;;;;14.70;13.50;;;21.20;81.40;;;;;;5010128;28;20030;-74
2022/05/20 07:01:37;;;;;;;16.60;15.27;;;21.40;81.10;;;;;;5005597;28;20030;-74
2022/05/20 07:04:04;;;;;;;17.40;16.00;;;21.50;81.50;;;;;;4996758;28;20022;-74
2022/05/20 07:06:32;;;;;;;17.73;16.15;;;21.60;81.40;;;;;;5003345;28;20406;-75
2022/05/20 07:09:01;;;;;;;38.58;18.40;;;21.50;81.40;;;;;;5010232;28;20394;-74
2022/05/20 07:11:28;;;;;;;59.85;19.33;;;21.40;81.60;;;;;;5010264;28;20030;-74
2022/05/20 07:13:55;;;;;;;47.67;18.10;;;21.40;81.60;;;;;;5010291;28;20034;-73
2022/05/20 07:16:23;;;;;;;16.63;15.00;;;21.40;81.80;;;;;;5012085;28;20030;-74
2022/05/20 07:18:49;;;;;;;16.77;15.10;;;21.50;81.90;;;;;;4995095;28;20037;-74
2022/05/20 07:21:15;;;;;;;17.98;16.23;;;21.70;82.30;;;;;;4991106;28;20033;-74
2022/05/20 07:23:41;;;;;;;17.75;15.75;;;21.60;81.40;;;;;;5011422;28;20026;-74
2022/05/20 07:26:08;;;;;;;17.75;16.15;;;21.60;81.50;;;;;;4994051;28;20038;-74
2022/05/20 07:28:34;;;;;;;16.90;15.38;;;21.60;82.00;;;;;;4979286;28;20389;-75
2022/05/20 07:31:01;;;;;;;18.25;16.60;;;21.60;82.50;;;;;;4977036;28;20045;-75
2022/05/20 07:33:28;;;;;;;17.02;15.63;;;21.40;81.90;;;;;;4990793;28;20038;-75
2022/05/20 07:35:55;;;;;;;18.63;17.02;;;21.40;81.90;;;;;;5010931;28;20018;-77
2022/05/20 07:38:22;;;;;;;17.00;15.30;;;21.30;82.60;;;;;;5008370;28;20044;-78
2022/05/20 07:40:50;;;;;;;16.55;15.00;;;21.30;82.00;;;;;;4991187;28;20038;-77
2022/05/20 07:43:20;;;;;;;15.32;13.98;;;21.40;82.40;;;;;;5011941;28;20036;-79
2022/05/20 07:45:47;;;;;;;16.45;14.95;;;21.30;81.10;;;;;;5011386;28;20038;-79
2022/05/20 07:48:13;;;;;;;16.08;14.48;;;21.40;80.90;;;;;;5011469;28;20046;-78
2022/05/20 07:50:42;;;;;;;17.15;15.05;;;21.40;80.50;;;;;;5009990;28;20364;-78
2022/05/20 07:53:20;;;;;;;17.17;15.68;;;21.30;80.30;;;;;;5010612;28;20038;-79
2022/05/20 07:55:54;;;;;;;16.15;14.43;;;21.30;81.30;;;;;;4994693;28;20034;-80
2022/05/20 07:58:22;;;;;;;16.90;14.75;;;21.20;80.30;;;;;;5007560;28;20022;-80
2022/05/20 08:00:48;;;;;;;17.60;16.02;;;21.20;80.30;;;;;;5006298;28;20181;-81
2022/05/20 08:04:52;;;;;;;17.95;16.27;;;21.20;80.00;;;;;;5008608;28;20049;-81
2022/05/20 08:06:01;;;;;;;17.08;15.80;;;21.10;79.90;;;;;;5006752;28;20030;-78
2022/05/20 08:08:27;;;;;;;17.90;16.50;;;21.10;79.60;;;;;;5001013;28;20030;-80
2022/05/20 08:10:53;;;;;;;17.52;15.90;;;21.10;79.20;;;;;;5007461;28;20031;-80
2022/05/20 08:13:21;;;;;;;24.30;17.55;;;20.90;79.30;;;;;;5012091;28;20386;-78
2022/05/20 08:15:49;;;;;;;19.95;15.90;;;20.80;79.30;;;;;;5007181;28;20476;-80
2022/05/20 08:18:17;;;;;;;16.65;15.07;;;20.70;79.50;;;;;;5005850;28;20049;-80
2022/05/20 08:20:43;;;;;;;16.90;15.10;;;20.80;79.80;;;;;;4992496;28;20041;-80
2022/05/20 08:23:09;;;;;;;17.35;15.63;;;20.90;79.30;;;;;;5009927;28;20056;-80
2022/05/20 08:25:36;;;;;;;14.85;13.65;;;20.90;79.20;;;;;;5011462;28;20030;-83
2022/05/20 08:28:04;;;;;;;15.68;14.27;;;20.90;79.40;;;;;;5007800;28;20057;-81
2022/05/20 08:30:30;;;;;;;15.95;14.38;;;21.00;79.20;;;;;;5009733;28;20041;-81
2022/05/20 08:32:56;;;;;;;18.35;16.50;;;21.10;78.70;;;;;;5002600;28;20037;-75
2022/05/20 08:35:23;;;;;;;15.98;14.48;;;21.00;78.10;;;;;;5006472;28;20503;-77
2022/05/20 08:37:50;;;;;;;16.33;15.02;;;20.90;78.60;;;;;;5006818;28;20065;-77
2022/05/20 08:40:19;;;;;;;15.38;14.10;;;20.90;79.20;;;;;;4994945;28;20038;-78
2022/05/20 08:42:45;;;;;;;16.55;14.95;;;21.00;78.80;;;;;;5009001;28;20046;-78
2022/05/20 08:45:12;;;;;;;16.90;15.60;;;21.10;78.50;;;;;;4993506;28;20030;-78
2022/05/20 08:47:43;;;;;;;16.17;14.68;;;21.20;78.40;;;;;;5007677;28;20034;-78
2022/05/20 08:50:13;;;;;;;16.17;14.52;;;21.30;78.10;;;;;;5007857;28;20387;-78
2022/05/20 08:52:39;;;;;;;17.45;15.98;;;21.40;77.80;;;;;;4999424;28;20031;-78
2022/05/20 08:55:06;;;;;;;17.67;16.25;;;21.40;77.90;;;;;;5012780;28;20044;-76
2022/05/20 08:57:33;;;;;;;16.05;14.75;;;21.50;77.70;;;;;;5009387;28;20030;-76
2022/05/20 09:00:00;;;;;;;15.75;14.15;;;21.60;77.40;;;;;;5010781;28;20079;-75
2022/05/20 09:02:27;;;;;;;16.33;14.75;;;21.70;76.70;;;;;;5006312;28;20038;-76
2022/05/20 09:04:54;;;;;;;16.80;15.32;;;21.80;76.60;;;;;;4993063;28;20034;-76
2022/05/20 09:07:20;;;;;;;17.38;15.77;;;21.80;76.30;;;;;;5009421;28;20021;-76
2022/05/20 09:09:53;;;;;;;16.02;14.65;;;21.90;76.20;;;;;;5010844;28;20046;-80
2022/05/20 09:12:35;;;;;;;17.20;15.50;;;21.90;76.10;;;;;;5006248;28;20022;-78
2022/05/20 09:17:54;;;;;;;17.20;15.60;;;22.10;75.80;;;;;;5011526;28;20110;-78
2022/05/20 09:20:20;;;;;;;16.95;15.55;;;22.10;75.80;;;;;;4985041;28;20045;-76
2022/05/20 09:23:13;;;;;;;18.30;16.50;;;22.00;76.00;;;;;;4990609;28;20038;-77
2022/05/20 09:25:59;;;;;;;17.70;16.10;;;22.00;76.00;;;;;;4995888;28;20548;-79
2022/05/20 09:28:37;;;;;;;17.65;16.15;;;22.00;75.90;;;;;;4994994;28;20053;-76
2022/05/20 09:31:14;;;;;;;18.75;17.23;;;22.00;76.30;;;;;;5007059;28;20045;-76
2022/05/20 09:33:41;;;;;;;19.02;17.20;;;21.90;76.60;;;;;;5006493;28;20029;-77
2022/05/20 09:36:07;;;;;;;18.70;16.85;;;21.90;76.60;;;;;;5004544;28;20030;-76
2022/05/20 09:38:43;;;;;;;18.48;16.98;;;21.90;76.80;;;;;;5008083;28;20049;-76
2022/05/20 09:41:18;;;;;;;18.73;17.13;;;21.90;76.70;;;;;;4990829;28;20034;-78
2022/05/20 09:43:51;;;;;;;19.45;17.45;;;21.90;76.80;;;;;;4977344;28;20041;-76
2022/05/20 09:46:55;;;;;;;19.73;17.58;;;21.90;77.10;;;;;;5009888;28;20037;-78
2022/05/20 09:49:41;;;;;;;19.05;17.55;;;21.80;77.60;;;;;;5008134;28;20045;-75
2022/05/20 09:52:22;;;;;;;18.27;16.55;;;21.70;77.50;;;;;;5022786;28;20387;-76
2022/05/20 09:54:54;;;;;;;17.10;15.52;;;21.80;77.50;;;;;;4997082;28;20037;-77
2022/05/20 09:57:35;;;;;;;18.33;16.58;;;21.80;77.50;;;;;;5012386;28;20037;-77
2022/05/20 10:00:21;;;;;;;17.80;16.30;;;22.00;76.90;;;;;;5008637;28;20506;-75
2022/05/20 10:03:10;;;;;;;16.50;15.18;;;22.10;76.60;;;;;;5007277;28;20033;-76
2022/05/20 10:05:56;;;;;;;19.67;17.90;;;22.30;76.20;;;;;;4994781;28;20045;-76
2022/05/20 10:08:49;;;;;;;20.02;18.23;;;22.40;75.80;;;;;;5010229;28;20037;-74
2022/05/20 10:11:21;;;;;;;17.88;16.48;;;22.50;76.40;;;;;;4999531;28;20045;-75
2022/05/20 10:14:03;;;;;;;19.02;17.33;;;22.60;75.00;;;;;;5011768;28;20030;-76
2022/05/20 10:17:02;;;;;;;18.55;17.05;;;22.60;75.40;;;;;;5010992;28;20030;-76
2022/05/20 10:19:51;;;;;;;20.35;18.60;;;22.70;74.70;;;;;;5015748;28;20141;-77
2022/05/20 10:22:27;;;;;;;20.17;18.48;;;22.80;74.20;;;;;;5011581;28;20038;-75
2022/05/20 10:25:23;;;;;;;20.88;19.38;;;23.00;73.70;;;;;;5013813;28;20487;-76
2022/05/20 10:28:02;;;;;;;21.58;19.92;;;23.00;72.80;;;;;;5017155;28;20038;-76
2022/05/20 10:33:22;;;;;;;;;;;22.70;73.10;;;;;;5012446;28;20506;-75
2022/05/20 10:35:56;;;;;;;19.88;18.10;;;22.70;73.90;;;;;;5013801;28;19909;-75
2022/05/20 10:38:41;;;;;;;20.23;18.55;;;22.80;73.70;;;;;;5009826;28;20059;-75
2022/05/20 10:41:24;;;;;;;20.80;19.30;;;22.90;73.20;;;;;;5008380;28;20496;-75
2022/05/20 10:50:06;;;;;;;21.50;19.92;;;23.00;73.20;;;;;;5003799;28;20069;-75
2022/05/20 10:53:01;;;;;;;18.67;17.17;;;22.80;72.90;;;;;;5014311;28;20026;-75
2022/05/20 10:55:58;;;;;;;18.17;16.80;;;22.60;73.50;;;;;;5011393;28;20380;-75
2022/05/20 10:58:39;;;;;;;16.90;15.57;;;22.70;73.80;;;;;;5012122;28;20030;-75
2022/05/20 11:01:17;;;;;;;20.77;19.15;;;22.70;73.70;;;;;;5011307;28;20053;-74
2022/05/20 11:03:43;;;;;;;17.58;16.27;;;22.80;72.90;;;;;;4975636;28;20133;-76
2022/05/20 11:06:40;;;;;;;18.48;17.08;;;22.70;73.30;;;;;;5004548;28;20046;-75
2022/05/20 11:09:34;;;;;;;17.25;15.93;;;22.50;73.30;;;;;;4988480;28;20062;-75
2022/05/20 11:12:01;;;;;;;16.38;15.05;;;22.40;73.70;;;;;;4989732;28;20077;-74
2022/05/20 11:14:45;;;;;;;18.98;17.67;;;22.40;73.80;;;;;;4994110;28;20030;-77
2022/05/20 11:17:30;;;;;;;16.45;15.23;;;22.40;73.50;;;;;;4995007;28;20042;-75
2022/05/20 11:20:17;;;;;;;18.77;17.27;;;22.50;73.60;;;;;;5005404;28;20483;-75
2022/05/20 11:22:57;;;;;;;17.35;15.93;;;22.70;73.90;;;;;;4997293;28;20029;-75
2022/05/20 11:25:35;;;;;;;20.70;19.17;;;22.80;72.50;;;;;;4995179;28;20049;-76
2022/05/20 11:28:04;;;;;;;21.33;19.67;;;22.90;72.70;;;;;;5011349;28;20479;-76
2022/05/20 11:30:45;;;;;;;21.08;19.50;;;23.00;71.70;;;;;;5010710;28;20050;-74
2022/05/20 11:33:14;;;;;;;;;;;23.00;72.20;;;;;;5008475;28;20343;-75
2022/05/20 11:36:18;;;;;;;17.90;16.63;;;23.10;69.40;;;;;;5008663;28;19928;-74
2022/05/20 11:39:03;;;;;;;19.67;18.15;;;23.10;69.20;;;;;;5012391;28;20033;-74
2022/05/20 11:42:03;;;;;;;20.35;18.85;;;23.10;68.90;;;;;;5012961;28;20133;-76
2022/05/20 11:44:52;;;;;;;19.73;17.88;;;22.90;67.70;;;;;;5012573;28;20046;-75
2022/05/20 11:47:47;;;;;;;17.83;16.35;;;22.70;68.00;;;;;;5009849;28;20114;-76
2022/05/20 11:50:39;;;;;;;17.10;15.80;;;22.40;68.20;;;;;;4992551;28;20414;-76
2022/05/20 11:53:32;;;;;;;18.05;16.27;;;22.10;69.20;;;;;;4988109;28;20496;-76
2022/05/20 11:56:06;;;;;;;16.88;15.50;;;22.20;70.20;;;;;;4995258;28;20041;-76
2022/05/20 11:58:34;;;;;;;16.40;15.10;;;22.10;69.30;;;;;;4962683;28;20790;-76
2022/05/20 12:01:00;;;;;;;17.77;16.25;;;22.20;69.20;;;;;;4993734;28;20042;-76
2022/05/20 12:03:28;;;;;;;17.52;15.93;;;22.10;68.30;;;;;;4976821;28;20086;-77
2022/05/20 12:05:54;;;;;;;18.08;16.13;;;22.10;69.00;;;;;;4992966;28;20034;-77
2022/05/20 12:08:40;;;;;;;17.00;15.27;;;22.10;68.60;;;;;;5010132;28;20036;-76
2022/05/20 12:11:30;;;;;;;16.35;14.13;;;22.00;68.10;;;;;;5009522;28;20057;-76
2022/05/20 12:14:19;;;;;;;15.88;14.38;;;21.90;69.20;;;;;;4991981;28;20474;-76
2022/05/20 12:17:04;;;;;;;15.07;13.55;;;21.90;69.20;;;;;;4979727;28;20042;-75
2022/05/20 12:25:31;;;;;;;16.48;14.90;;;22.00;68.70;;;;;;4999606;28;20502;-75
2022/05/20 12:28:21;;;;;;;17.55;13.98;;;21.90;68.00;;;;;;5009413;28;20045;-76
2022/05/20 12:31:37;;;;;;;15.23;14.07;;;21.90;68.90;;;;;;5012942;28;20415;-76
2022/05/20 12:34:10;;;;;;;18.17;16.27;;;22.10;68.90;;;;;;5010284;28;20042;-76
2022/05/20 12:36:43;;;;;;;17.85;16.35;;;22.40;67.10;;;;;;5012150;28;20036;-76
2022/05/20 12:39:09;;;;;;;16.30;14.88;;;22.50;66.20;;;;;;5011828;28;20030;-77
2022/05/20 12:41:53;;;;;;;18.50;16.63;;;22.60;66.70;;;;;;5012038;28;20053;-76
2022/05/20 12:44:22;;;;;;;15.55;14.32;;;22.60;64.90;;;;;;5013055;28;20867;-76
2022/05/20 12:47:03;;;;;;;17.92;16.33;;;22.80;66.00;;;;;;5012248;28;20041;-76
2022/05/20 12:49:37;;;;;;;18.38;16.98;;;22.90;64.00;;;;;;5009488;28;20499;-76
2022/05/20 12:52:07;;;;;;;16.40;14.98;;;22.80;63.70;;;;;;5010641;28;20030;-77
2022/05/20 12:54:36;;;;;;;15.85;14.38;;;22.70;63.70;;;;;;5009131;28;20038;-77
2022/05/20 12:57:08;;;;;;;15.95;14.68;;;22.50;64.20;;;;;;5011583;28;20093;-77
2022/05/20 12:59:34;;;;;;;15.63;14.13;;;22.50;64.60;;;;;;5011685;28;20045;-77
2022/05/20 13:02:06;;;;;;;15.88;14.45;;;22.40;65.20;;;;;;5011573;28;20038;-76
2022/05/20 13:04:37;;;;;;;15.88;14.50;;;22.40;64.80;;;;;;4993097;28;20072;-78
2022/05/20 13:07:03;;;;;;;15.68;14.32;;;22.50;64.00;;;;;;4996026;28;20033;-76
2022/05/20 13:09:37;;;;;;;16.00;14.57;;;22.60;64.00;;;;;;5011492;28;20045;-76
2022/05/20 13:12:07;;;;;;;16.52;14.93;;;22.80;64.00;;;;;;4995104;28;20109;-76
2022/05/20 13:14:35;;;;;;;16.65;15.07;;;22.80;63.20;;;;;;5011650;28;20029;-77
2022/05/20 13:17:03;;;;;;;16.92;15.50;;;23.00;63.60;;;;;;4994905;28;20402;-76
2022/05/20 13:19:38;;;;;;;16.83;15.15;;;23.20;63.60;;;;;;5010591;28;20479;-75
2022/05/20 13:22:05;;;;;;;16.17;14.85;;;23.10;61.70;;;;;;5010743;28;20029;-76
2022/05/20 13:24:34;;;;;;;16.02;14.60;;;23.00;62.20;;;;;;5011475;28;20030;-76
2022/05/20 13:27:06;;;;;;;17.77;16.33;;;23.00;62.10;;;;;;5011422;28;20021;-77
2022/05/20 13:29:32;;;;;;;16.25;14.85;;;23.10;63.10;;;;;;5011615;28;20398;-77
2022/05/20 13:32:18;;;;;;;15.90;14.60;;;23.20;59.50;;;;;;5010487;28;20030;-76